Time;durP1;ratioP1;P1;durP2;ratioP2;P2;SDS_P1;SDS_P2;PMS_P1;PMS_P2;Temp;Humidity;BMP_temperature;BMP_pressure;BME280_temperature;BME280_humidity;BME280_pressure;Samples;Min_cycle;Max_cycle;Signal;HPM_P1;HPM_P2
2022/08/02 00:02:19;;;;;;;1.92;1.83;;;16.90;99.90;;;;;;4350149;28;9999983;-72
2022/08/02 00:04:45;;;;;;;2.28;2.08;;;16.90;99.90;;;;;;5064572;28;20024;-72
2022/08/02 00:07:11;;;;;;;2.63;2.42;;;16.80;99.90;;;;;;5064012;28;20029;-72
2022/08/02 00:09:37;;;;;;;2.22;2.03;;;16.80;99.90;;;;;;5049699;28;20388;-72
2022/08/02 00:12:03;;;;;;;2.78;2.58;;;16.80;99.90;;;;;;5049436;28;20489;-72
2022/08/02 00:14:29;;;;;;;2.72;2.10;;;16.80;99.90;;;;;;5057680;28;20226;-72
2022/08/02 00:16:55;;;;;;;2.88;2.55;;;16.80;99.90;;;;;;5048897;28;20028;-72
2022/08/02 00:19:20;;;;;;;2.33;2.13;;;16.90;99.90;;;;;;5055402;28;20039;-72
2022/08/02 00:21:46;;;;;;;2.72;2.53;;;16.80;99.90;;;;;;5058056;28;20063;-72
2022/08/02 00:24:12;;;;;;;2.65;2.40;;;16.80;99.90;;;;;;5050945;28;20032;-72
2022/08/02 00:26:38;;;;;;;2.65;2.45;;;16.80;99.90;;;;;;5051118;28;20262;-72
2022/08/02 00:29:03;;;;;;;3.38;2.30;;;16.80;99.90;;;;;;5052083;28;20526;-72
2022/08/02 00:31:29;;;;;;;2.50;2.25;;;16.80;99.90;;;;;;5047574;28;20037;-72
2022/08/02 00:33:55;;;;;;;2.38;2.20;;;16.80;99.90;;;;;;5047623;28;20028;-72
2022/08/02 00:36:20;;;;;;;2.38;2.17;;;16.70;99.90;;;;;;5045568;28;20056;-72
2022/08/02 00:38:47;;;;;;;2.30;2.20;;;16.60;99.90;;;;;;5046674;28;20068;-72
2022/08/02 00:41:16;;;;;;;3.40;2.40;;;16.60;99.90;;;;;;5056652;28;20488;-72
2022/08/02 00:43:42;;;;;;;2.58;2.25;;;16.60;99.90;;;;;;5048298;28;20062;-72
2022/08/02 00:46:09;;;;;;;2.65;2.20;;;16.70;99.90;;;;;;5051460;28;20447;-72
2022/08/02 00:48:35;;;;;;;2.70;2.50;;;16.70;99.90;;;;;;5056871;28;20025;-72
2022/08/02 00:51:01;;;;;;;2.40;2.20;;;16.70;99.90;;;;;;5051376;28;20463;-72
2022/08/02 00:53:27;;;;;;;2.83;2.50;;;16.60;99.90;;;;;;5046065;28;20108;-72
2022/08/02 00:55:53;;;;;;;2.30;2.20;;;16.60;99.90;;;;;;5045770;28;20546;-72
2022/08/02 00:58:19;;;;;;;3.45;2.40;;;16.50;99.90;;;;;;5045280;28;20047;-72
2022/08/02 01:00:44;;;;;;;3.92;2.42;;;16.40;99.90;;;;;;5054214;28;20042;-72
2022/08/02 01:03:10;;;;;;;2.50;2.30;;;16.40;99.90;;;;;;5049434;28;20044;-72
2022/08/02 01:05:35;;;;;;;2.47;2.28;;;16.30;99.90;;;;;;5058203;28;20039;-72
2022/08/02 01:08:02;;;;;;;2.72;2.53;;;16.30;99.90;;;;;;5053810;28;20535;-72
2022/08/02 01:10:27;;;;;;;2.50;2.30;;;16.20;99.90;;;;;;5065134;28;20107;-72
2022/08/02 01:12:53;;;;;;;2.67;2.47;;;16.20;99.90;;;;;;5069683;28;20119;-72
2022/08/02 01:15:20;;;;;;;3.17;2.60;;;16.00;99.90;;;;;;5051697;28;20526;-72
2022/08/02 01:18:12;;;;;;;2.83;2.63;;;16.00;99.90;;;;;;5053102;28;20101;-72
2022/08/02 01:20:56;;;;;;;2.80;2.55;;;16.00;99.90;;;;;;5060669;28;20032;-72
2022/08/02 01:23:42;;;;;;;3.22;2.13;;;16.00;99.90;;;;;;5061866;28;20077;-72
2022/08/02 01:26:18;;;;;;;2.40;2.20;;;16.00;99.90;;;;;;5063931;28;20032;-71
2022/08/02 01:28:59;;;;;;;2.42;2.22;;;15.90;99.90;;;;;;5053262;28;20107;-72
2022/08/02 01:31:41;;;;;;;2.45;2.25;;;15.90;99.90;;;;;;5064837;28;20024;-72
2022/08/02 01:34:19;;;;;;;4.05;2.40;;;15.90;99.90;;;;;;5059212;28;20176;-72
2022/08/02 01:37:05;;;;;;;2.47;2.28;;;15.90;99.90;;;;;;5063022;28;20032;-72
2022/08/02 01:39:33;;;;;;;2.40;2.20;;;15.80;99.90;;;;;;5040249;28;20089;-72
2022/08/02 01:42:00;;;;;;;2.50;2.30;;;15.80;99.90;;;;;;5052204;28;20016;-72
2022/08/02 01:44:30;;;;;;;2.53;2.28;;;15.70;99.90;;;;;;5054014;28;20029;-72
2022/08/02 01:47:00;;;;;;;2.50;2.25;;;15.70;99.90;;;;;;5056839;28;20028;-72
2022/08/02 01:49:27;;;;;;;2.35;2.15;;;15.70;99.90;;;;;;5064412;28;20036;-72
2022/08/02 01:54:41;;;;;;;3.20;2.90;;;15.60;99.90;;;;;;5057615;28;20040;-72
2022/08/02 01:57:10;;;;;;;2.95;2.65;;;15.60;99.90;;;;;;5053739;28;20167;-72
2022/08/02 01:59:38;;;;;;;2.70;2.50;;;15.70;99.90;;;;;;5059766;28;20452;-72
2022/08/02 02:02:07;;;;;;;3.70;3.10;;;15.60;99.90;;;;;;5057017;28;20036;-72
2022/08/02 02:04:35;;;;;;;3.17;2.90;;;15.50;99.90;;;;;;5059013;28;20028;-72
2022/08/02 02:07:02;;;;;;;2.75;2.55;;;15.50;99.90;;;;;;5075007;28;20074;-72
2022/08/02 02:09:30;;;;;;;3.00;2.80;;;15.50;99.90;;;;;;5068133;28;20251;-72
2022/08/02 02:11:57;;;;;;;3.10;2.80;;;15.50;99.90;;;;;;5050761;28;20638;-72
2022/08/02 02:14:24;;;;;;;3.47;3.17;;;15.50;99.90;;;;;;5048086;28;20021;-72
2022/08/02 02:16:51;;;;;;;4.13;3.80;;;15.40;99.90;;;;;;5063166;28;20116;-72
2022/08/02 02:19:19;;;;;;;5.00;4.18;;;15.50;99.90;;;;;;5054650;28;20028;-72
2022/08/02 02:21:45;;;;;;;4.50;3.42;;;15.50;99.90;;;;;;5042935;28;20032;-72
2022/08/02 02:24:11;;;;;;;3.40;3.10;;;15.50;99.90;;;;;;5052038;28;20033;-72
2022/08/02 02:26:39;;;;;;;3.40;3.10;;;15.40;99.90;;;;;;5059745;28;20036;-72
2022/08/02 02:29:08;;;;;;;3.10;2.80;;;15.40;99.90;;;;;;5070889;28;20103;-72
2022/08/02 02:31:39;;;;;;;2.85;2.65;;;15.40;99.90;;;;;;5066341;28;20052;-72
2022/08/02 02:34:09;;;;;;;3.13;2.88;;;15.40;99.90;;;;;;5072409;28;20097;-72
2022/08/02 02:36:39;;;;;;;3.45;3.15;;;15.40;99.90;;;;;;5075840;28;20534;-71
2022/08/02 02:39:08;;;;;;;3.10;2.90;;;15.40;99.90;;;;;;5040547;28;20501;-72
2022/08/02 02:41:36;;;;;;;3.20;3.00;;;15.40;99.90;;;;;;5042962;28;20024;-71
2022/08/02 02:44:03;;;;;;;3.38;3.08;;;15.30;99.90;;;;;;5036791;28;20138;-72
2022/08/02 02:46:30;;;;;;;4.57;3.30;;;15.40;99.90;;;;;;5045855;28;20050;-72
2022/08/02 02:48:57;;;;;;;3.75;3.45;;;15.30;99.90;;;;;;5031416;28;20025;-72
2022/08/02 02:51:24;;;;;;;4.00;3.60;;;15.30;99.90;;;;;;5046285;28;20101;-72
2022/08/02 02:53:51;;;;;;;4.53;4.13;;;15.30;99.90;;;;;;5028237;28;20036;-72
2022/08/02 02:56:18;;;;;;;4.07;3.75;;;15.30;99.90;;;;;;5042220;28;20516;-72
2022/08/02 02:58:46;;;;;;;5.07;4.25;;;15.30;99.90;;;;;;5045134;28;20036;-72
2022/08/02 03:01:29;;;;;;;4.22;3.88;;;15.30;99.90;;;;;;5049824;28;20405;-72
2022/08/02 03:03:56;;;;;;;4.38;3.25;;;15.30;99.90;;;;;;5049361;28;20049;-72
2022/08/02 03:06:22;;;;;;;3.75;3.45;;;15.20;99.90;;;;;;5034770;28;20087;-72
2022/08/02 03:08:48;;;;;;;4.35;3.67;;;15.10;99.90;;;;;;5026495;28;20602;-72
2022/08/02 03:11:14;;;;;;;3.95;3.55;;;15.10;99.90;;;;;;5039433;28;20516;-72
2022/08/02 03:13:40;;;;;;;3.42;3.15;;;15.10;99.90;;;;;;5028011;28;20068;-72
2022/08/02 03:16:06;;;;;;;3.78;2.60;;;15.20;99.90;;;;;;5039237;28;20067;-72
2022/08/02 03:18:40;;;;;;;2.70;2.50;;;15.20;99.90;;;;;;5041009;28;20594;-72
2022/08/02 03:21:12;;;;;;;3.35;3.08;;;15.20;99.90;;;;;;5033542;28;20219;-72
2022/08/02 03:23:39;;;;;;;2.65;2.45;;;15.10;99.90;;;;;;5032383;28;20520;-72
2022/08/02 03:26:05;;;;;;;4.85;2.30;;;15.10;99.90;;;;;;5033437;28;20444;-72
2022/08/02 03:28:30;;;;;;;2.10;2.00;;;15.00;99.90;;;;;;5030414;28;20033;-72
2022/08/02 03:30:56;;;;;;;2.15;2.05;;;15.00;99.90;;;;;;5030659;28;20397;-72
2022/08/02 03:33:24;;;;;;;1.80;1.70;;;15.00;99.90;;;;;;5036312;28;20116;-72
2022/08/02 03:35:51;;;;;;;1.45;1.40;;;14.90;99.90;;;;;;5037567;28;20022;-72
2022/08/02 03:38:18;;;;;;;2.47;1.58;;;14.90;99.90;;;;;;5051621;28;20056;-72
2022/08/02 03:40:45;;;;;;;1.70;1.60;;;14.90;99.90;;;;;;5060345;28;20082;-71
2022/08/02 03:43:11;;;;;;;13.93;2.10;;;14.90;99.90;;;;;;5080773;28;20037;-72
2022/08/02 03:45:40;;;;;;;2.08;1.98;;;14.90;99.90;;;;;;5053177;28;20036;-72
2022/08/02 03:48:07;;;;;;;3.03;1.95;;;14.80;99.90;;;;;;5048699;28;20033;-71
2022/08/02 03:50:35;;;;;;;4.93;3.25;;;14.80;99.90;;;;;;5051641;28;20033;-71
2022/08/02 03:53:01;;;;;;;60.13;4.30;;;14.70;99.90;;;;;;5063771;28;20025;-71
2022/08/02 03:55:27;;;;;;;7.25;3.58;;;14.70;99.90;;;;;;5047729;28;20028;-72
2022/08/02 03:57:52;;;;;;;3.72;3.22;;;14.70;99.90;;;;;;5045198;28;20055;-71
2022/08/02 04:00:20;;;;;;;5.25;3.28;;;14.70;99.90;;;;;;5047171;28;20025;-72
2022/08/02 04:02:46;;;;;;;5.07;3.97;;;14.80;99.90;;;;;;5048868;28;20489;-71
2022/08/02 04:05:12;;;;;;;17.27;4.82;;;14.80;99.90;;;;;;5054533;28;20095;-71
2022/08/02 04:07:38;;;;;;;5.25;4.28;;;14.70;99.90;;;;;;5055210;28;20157;-71
2022/08/02 04:10:04;;;;;;;6.60;4.22;;;14.70;99.90;;;;;;5046488;28;20036;-72
2022/08/02 04:12:30;;;;;;;3.80;3.50;;;14.80;99.90;;;;;;5061605;28;20071;-72
2022/08/02 04:14:56;;;;;;;4.57;3.70;;;14.90;99.90;;;;;;5061190;28;20052;-72
2022/08/02 04:17:22;;;;;;;4.57;3.28;;;14.90;99.90;;;;;;5052023;28;20040;-72
2022/08/02 04:19:52;;;;;;;3.78;3.30;;;14.90;99.90;;;;;;5058858;28;20025;-72
2022/08/02 04:22:29;;;;;;;6.93;3.20;;;14.90;99.90;;;;;;5047387;28;20024;-72
2022/08/02 04:24:58;;;;;;;13.63;4.40;;;15.00;99.90;;;;;;5055290;28;20032;-71
2022/08/02 04:27:25;;;;;;;11.00;3.78;;;15.10;99.90;;;;;;5052828;28;20028;-72
2022/08/02 04:29:52;;;;;;;4.65;3.78;;;15.20;99.90;;;;;;5061029;28;20033;-72
2022/08/02 04:32:19;;;;;;;7.18;4.00;;;15.20;99.90;;;;;;5061581;28;20084;-72
2022/08/02 04:34:45;;;;;;;3.38;3.13;;;15.20;99.90;;;;;;5060689;28;20120;-72
2022/08/02 04:37:12;;;;;;;5.88;4.40;;;15.30;99.90;;;;;;5048735;28;20052;-72
2022/08/02 04:39:40;;;;;;;8.25;5.13;;;15.30;99.90;;;;;;5052599;28;20029;-72
2022/08/02 04:42:05;;;;;;;9.40;5.65;;;15.30;99.90;;;;;;5051593;28;20138;-72
2022/08/02 04:44:31;;;;;;;9.82;6.40;;;15.40;99.90;;;;;;5052593;28;20131;-72
2022/08/02 04:47:01;;;;;;;10.35;7.18;;;15.40;99.90;;;;;;5057427;28;20506;-72
2022/08/02 04:49:27;;;;;;;9.98;6.82;;;15.50;99.90;;;;;;5055137;28;20082;-72
2022/08/02 04:51:53;;;;;;;8.23;6.03;;;15.60;99.90;;;;;;5062347;28;20688;-72
2022/08/02 04:54:19;;;;;;;7.47;6.78;;;15.60;99.90;;;;;;5050956;28;20106;-71
2022/08/02 04:56:44;;;;;;;10.68;6.10;;;15.60;99.90;;;;;;5061796;28;20040;-72
2022/08/02 04:59:11;;;;;;;12.13;6.10;;;15.70;99.90;;;;;;5064047;28;20025;-72
2022/08/02 05:01:38;;;;;;;10.50;6.43;;;15.70;99.90;;;;;;5060138;28;20025;-71
2022/08/02 05:04:04;;;;;;;8.93;5.93;;;15.80;99.90;;;;;;5051007;28;20024;-73
2022/08/02 05:06:30;;;;;;;13.90;6.70;;;15.90;99.90;;;;;;5062956;28;20701;-73
2022/08/02 05:08:56;;;;;;;6.05;5.53;;;15.90;99.90;;;;;;5083979;28;20657;-73
2022/08/02 05:11:23;;;;;;;5.85;5.25;;;16.00;99.90;;;;;;5064656;28;20025;-73
2022/08/02 05:13:49;;;;;;;8.45;6.15;;;16.00;99.90;;;;;;5050148;28;20040;-73
2022/08/02 05:16:15;;;;;;;7.35;5.82;;;16.10;99.90;;;;;;5055677;28;20085;-73
2022/08/02 05:18:40;;;;;;;7.32;6.47;;;16.10;99.90;;;;;;5049966;28;20029;-73
2022/08/02 05:21:06;;;;;;;7.35;6.43;;;16.20;99.90;;;;;;5058540;28;20472;-73
2022/08/02 05:23:32;;;;;;;7.95;6.68;;;16.30;99.90;;;;;;5050250;28;20025;-73
2022/08/02 05:25:57;;;;;;;7.38;6.47;;;16.30;99.90;;;;;;5040438;28;20082;-73
2022/08/02 05:28:24;;;;;;;8.18;6.63;;;16.30;99.90;;;;;;5054101;28;20455;-73
2022/08/02 05:30:50;;;;;;;10.10;6.53;;;16.40;99.90;;;;;;5067347;28;20029;-73
2022/08/02 05:33:16;;;;;;;11.40;6.50;;;16.30;99.90;;;;;;5066939;28;20020;-73
2022/08/02 05:35:41;;;;;;;6.35;5.68;;;16.40;99.90;;;;;;5063779;28;20029;-72
2022/08/02 05:38:07;;;;;;;7.10;5.25;;;16.30;99.90;;;;;;5062665;28;20052;-73
2022/08/02 05:40:33;;;;;;;6.60;6.00;;;16.30;99.90;;;;;;5072513;28;20017;-73
2022/08/02 05:42:58;;;;;;;7.53;5.70;;;16.40;99.90;;;;;;5065075;28;20059;-73
2022/08/02 05:45:24;;;;;;;5.40;4.90;;;16.30;99.90;;;;;;5060262;28;20020;-73
2022/08/02 05:47:50;;;;;;;7.05;5.60;;;16.30;99.90;;;;;;5056196;28;20220;-73
2022/08/02 05:50:16;;;;;;;6.07;5.53;;;16.30;99.90;;;;;;5060830;28;20028;-73
2022/08/02 05:52:49;;;;;;;6.78;6.10;;;16.30;99.90;;;;;;5061349;28;20506;-73
2022/08/02 05:55:17;;;;;;;6.60;6.00;;;16.30;99.90;;;;;;5052706;28;20078;-74
2022/08/02 05:57:54;;;;;;;6.70;6.10;;;16.40;99.90;;;;;;5058348;28;20038;-74
2022/08/02 06:00:21;;;;;;;6.90;6.28;;;16.50;99.90;;;;;;5069309;28;20021;-73
2022/08/02 06:03:04;;;;;;;6.18;5.57;;;16.50;99.90;;;;;;5054942;28;20103;-73
2022/08/02 06:05:39;;;;;;;8.45;6.43;;;16.70;99.90;;;;;;5062788;28;20029;-73
2022/08/02 06:08:09;;;;;;;7.10;6.40;;;16.80;99.90;;;;;;5072977;28;20091;-73
2022/08/02 06:10:39;;;;;;;7.35;6.65;;;16.80;99.90;;;;;;5059111;28;20035;-73
2022/08/02 06:13:15;;;;;;;7.70;6.07;;;16.90;99.90;;;;;;5049431;28;20024;-72
2022/08/02 06:15:41;;;;;;;6.38;5.78;;;16.90;99.90;;;;;;5082507;28;20528;-72
2022/08/02 06:18:08;;;;;;;7.43;6.45;;;16.90;99.90;;;;;;5059300;28;20031;-71
2022/08/02 06:20:35;;;;;;;9.27;8.32;;;16.80;99.90;;;;;;5057344;28;20116;-72
2022/08/02 06:23:05;;;;;;;8.63;6.50;;;16.80;99.90;;;;;;5058500;28;20025;-72
2022/08/02 06:25:33;;;;;;;8.52;7.25;;;16.80;99.90;;;;;;5054222;28;20025;-72
2022/08/02 06:28:00;;;;;;;8.52;7.40;;;16.80;99.90;;;;;;5059780;28;20086;-72
2022/08/02 06:30:27;;;;;;;19.00;8.90;;;16.90;99.90;;;;;;5057481;28;20017;-72
2022/08/02 06:32:53;;;;;;;6.88;6.18;;;17.00;99.90;;;;;;5059249;28;20035;-71
2022/08/02 06:35:19;;;;;;;8.80;7.85;;;17.00;99.90;;;;;;5055711;28;20029;-72
2022/08/02 06:37:52;;;;;;;9.13;7.43;;;17.10;99.90;;;;;;5056235;28;20055;-72
2022/08/02 06:40:36;;;;;;;;;;;17.20;99.90;;;;;;5055707;28;20081;-71
2022/08/02 06:43:05;;;;;;;10.05;8.00;;;17.30;99.90;;;;;;5056043;28;19909;-72
2022/08/02 06:45:33;;;;;;;12.82;8.48;;;17.40;99.90;;;;;;5051720;28;20047;-72
2022/08/02 06:47:59;;;;;;;10.40;8.80;;;17.50;99.90;;;;;;5063587;28;20025;-72
2022/08/02 06:50:24;;;;;;;11.45;9.30;;;17.50;99.90;;;;;;5053589;28;20047;-73
2022/08/02 06:52:50;;;;;;;11.23;9.13;;;17.60;99.90;;;;;;5064570;28;20108;-72
2022/08/02 06:55:16;;;;;;;12.50;8.73;;;17.50;99.90;;;;;;5064828;28;20500;-73
2022/08/02 06:57:42;;;;;;;10.73;8.60;;;17.70;99.90;;;;;;5057043;28;21488;-72
2022/08/02 07:00:08;;;;;;;8.65;7.75;;;17.90;99.90;;;;;;5057697;28;20118;-72
2022/08/02 07:02:38;;;;;;;8.32;7.43;;;18.00;99.90;;;;;;5059289;28;20111;-72
2022/08/02 07:05:05;;;;;;;13.20;8.82;;;18.10;99.90;;;;;;5053577;28;20025;-72
2022/08/02 07:07:31;;;;;;;10.52;7.40;;;18.20;99.90;;;;;;5059946;28;20107;-73
2022/08/02 07:09:58;;;;;;;10.80;8.70;;;18.20;99.90;;;;;;5060368;28;20720;-72
2022/08/02 07:12:24;;;;;;;9.65;8.65;;;18.30;99.90;;;;;;5063131;28;20115;-73
2022/08/02 07:14:50;;;;;;;8.85;7.95;;;18.50;99.90;;;;;;5061101;28;20033;-73
2022/08/02 07:17:15;;;;;;;7.97;7.10;;;18.40;99.90;;;;;;5066157;28;20495;-73
2022/08/02 07:19:41;;;;;;;8.73;7.47;;;18.50;99.90;;;;;;5051019;28;20037;-72
2022/08/02 07:22:07;;;;;;;7.65;6.93;;;18.70;99.90;;;;;;5057422;28;20025;-73
2022/08/02 07:24:32;;;;;;;9.80;7.57;;;18.90;99.90;;;;;;5058403;28;20487;-73
2022/08/02 07:26:59;;;;;;;8.77;7.90;;;18.90;99.90;;;;;;5048312;28;20033;-75
2022/08/02 07:29:24;;;;;;;8.52;7.72;;;19.00;99.90;;;;;;5067420;28;20067;-73
2022/08/02 07:31:50;;;;;;;7.88;7.13;;;;;;;;;;5048049;28;20048;-76
2022/08/02 07:34:16;;;;;;;7.13;6.50;;;19.30;99.90;;;;;;5060604;28;20033;-74
2022/08/02 07:36:42;;;;;;;10.75;7.97;;;19.70;99.90;;;;;;5075573;28;20041;-75
2022/08/02 07:39:07;;;;;;;9.52;7.03;;;20.00;99.90;;;;;;5060995;28;20033;-74
2022/08/02 07:41:33;;;;;;;9.93;7.38;;;20.00;99.90;;;;;;5052082;28;20409;-75
2022/08/02 07:43:58;;;;;;;9.88;7.15;;;20.30;99.90;;;;;;5049140;28;20029;-76
2022/08/02 07:46:24;;;;;;;6.80;6.10;;;20.50;99.90;;;;;;5059559;28;20115;-73
2022/08/02 07:48:53;;;;;;;7.45;6.75;;;20.70;99.90;;;;;;5057640;28;20028;-75
2022/08/02 07:51:22;;;;;;;8.38;7.68;;;20.90;99.90;;;;;;5063644;28;20071;-74
2022/08/02 07:53:47;;;;;;;12.38;7.43;;;21.10;99.90;;;;;;5054742;28;20523;-74
2022/08/02 07:56:13;;;;;;;11.45;6.55;;;21.20;99.90;;;;;;5050985;28;20029;-75
2022/08/02 07:58:40;;;;;;;10.45;7.97;;;21.30;99.90;;;;;;5061947;28;20606;-74
2022/08/02 08:01:06;;;;;;;9.68;8.68;;;21.30;99.90;;;;;;5056240;28;20067;-74
2022/08/02 08:03:31;;;;;;;9.25;7.78;;;21.40;99.90;;;;;;5059804;28;20414;-75
2022/08/02 08:05:57;;;;;;;9.68;8.02;;;21.50;99.90;;;;;;5054966;28;20115;-74
2022/08/02 08:08:22;;;;;;;11.77;9.38;;;21.70;99.90;;;;;;5051140;28;20086;-75
2022/08/02 08:10:48;;;;;;;12.00;10.48;;;21.70;99.90;;;;;;5054942;28;20025;-74
2022/08/02 08:13:14;;;;;;;10.63;9.52;;;21.90;99.90;;;;;;5066094;28;20044;-74
2022/08/02 08:15:40;;;;;;;12.75;11.43;;;22.10;99.90;;;;;;5070208;28;20033;-75
2022/08/02 08:18:06;;;;;;;12.48;11.18;;;22.20;99.90;;;;;;5052992;28;20104;-75
2022/08/02 08:20:32;;;;;;;11.55;10.35;;;22.20;99.90;;;;;;5052774;28;20029;-75
2022/08/02 08:22:57;;;;;;;10.85;9.80;;;22.10;99.90;;;;;;5060044;28;20028;-75
2022/08/02 08:25:23;;;;;;;11.45;10.25;;;22.20;99.90;;;;;;5054190;28;20727;-77
2022/08/02 08:27:50;;;;;;;11.35;10.15;;;22.40;99.90;;;;;;5049080;28;20705;-74
2022/08/02 08:30:17;;;;;;;12.48;10.15;;;22.40;99.90;;;;;;5047847;28;20067;-74
2022/08/02 08:32:44;;;;;;;11.00;8.30;;;22.50;99.90;;;;;;5052768;28;20036;-75
2022/08/02 08:35:10;;;;;;;8.57;7.65;;;22.60;99.90;;;;;;5056071;28;20104;-74
2022/08/02 08:37:37;;;;;;;8.43;7.20;;;22.70;99.90;;;;;;5055238;28;20049;-76
2022/08/02 08:40:08;;;;;;;9.75;6.20;;;23.00;99.90;;;;;;5051978;28;20021;-76
2022/08/02 08:42:35;;;;;;;5.43;4.75;;;23.00;99.90;;;;;;5047845;28;20032;-75
2022/08/02 08:45:01;;;;;;;6.60;5.32;;;23.10;99.90;;;;;;5049995;28;20059;-76
2022/08/02 08:47:38;;;;;;;7.13;4.97;;;23.20;99.90;;;;;;5048576;28;20528;-75
2022/08/02 08:50:07;;;;;;;7.68;5.50;;;23.30;99.90;;;;;;5051056;28;20025;-75
2022/08/02 08:53:02;;;;;;;5.20;4.70;;;23.30;99.90;;;;;;5047283;28;20047;-75
2022/08/02 08:55:28;;;;;;;5.72;4.78;;;23.50;99.90;;;;;;5046305;28;20064;-75
2022/08/02 08:57:56;;;;;;;4.50;4.10;;;23.50;99.90;;;;;;5045444;28;20032;-75
2022/08/02 09:00:22;;;;;;;7.78;3.83;;;23.60;99.90;;;;;;5046805;28;20028;-77
2022/08/02 09:02:49;;;;;;;5.95;3.42;;;23.70;99.90;;;;;;5046461;28;20013;-77
2022/08/02 09:05:16;;;;;;;3.95;2.67;;;23.70;99.90;;;;;;5059664;28;20024;-76
2022/08/02 09:07:45;;;;;;;5.20;3.05;;;23.80;99.90;;;;;;5059907;28;20032;-75
2022/08/02 09:10:30;;;;;;;3.15;2.78;;;24.00;99.90;;;;;;5050131;28;20823;-75
2022/08/02 09:13:11;;;;;;;3.35;2.92;;;24.10;99.90;;;;;;5058712;28;20519;-75
2022/08/02 09:15:38;;;;;;;2.97;2.58;;;24.30;99.90;;;;;;5055474;28;20511;-75
2022/08/02 09:18:05;;;;;;;3.83;2.50;;;24.20;99.90;;;;;;5053459;28;20207;-75
2022/08/02 09:20:49;;;;;;;2.22;2.03;;;24.20;99.90;;;;;;5047864;28;20032;-75
2022/08/02 09:23:15;;;;;;;2.63;2.00;;;24.20;99.90;;;;;;5050241;28;20096;-75
2022/08/02 09:25:40;;;;;;;3.42;1.70;;;24.40;99.90;;;;;;5051701;28;20499;-76
2022/08/02 09:28:06;;;;;;;1.52;1.40;;;24.40;99.90;;;;;;5052987;28;20028;-75
2022/08/02 09:30:41;;;;;;;2.00;1.10;;;24.50;99.90;;;;;;5048290;28;20105;-76
2022/08/02 09:33:08;;;;;;;2.58;1.40;;;24.60;99.90;;;;;;5067547;28;20028;-76
2022/08/02 09:35:39;;;;;;;2.20;1.58;;;24.60;99.90;;;;;;5053012;28;20025;-76
2022/08/02 09:38:13;;;;;;;1.63;1.20;;;24.60;99.90;;;;;;5047225;28;20136;-75
2022/08/02 09:40:40;;;;;;;1.30;1.20;;;24.50;99.90;;;;;;5055043;28;20068;-76
2022/08/02 09:43:07;;;;;;;1.88;1.23;;;24.70;99.90;;;;;;5060690;28;20562;-76
2022/08/02 09:45:33;;;;;;;3.65;1.30;;;24.80;99.90;;;;;;5064684;28;20036;-75
2022/08/02 09:48:09;;;;;;;1.85;1.10;;;24.90;99.90;;;;;;5058693;28;20099;-75
2022/08/02 09:50:40;;;;;;;1.92;1.38;;;25.00;99.90;;;;;;5061788;28;20115;-75
2022/08/02 09:53:12;;;;;;;1.92;1.23;;;25.10;99.90;;;;;;5059459;28;20044;-76
2022/08/02 09:55:39;;;;;;;1.30;1.20;;;25.20;99.90;;;;;;5055911;28;20112;-77
2022/08/02 09:58:18;;;;;;;1.92;1.20;;;25.10;99.90;;;;;;5056019;28;20710;-77
2022/08/02 10:00:55;;;;;;;1.40;1.30;;;25.10;99.90;;;;;;5055831;28;20033;-76
2022/08/02 10:03:20;;;;;;;1.38;1.17;;;25.20;99.90;;;;;;5047931;28;20111;-75
2022/08/02 10:05:52;;;;;;;2.33;1.35;;;25.30;99.90;;;;;;5056777;28;20103;-75
2022/08/02 10:08:18;;;;;;;3.17;1.23;;;25.30;99.50;;;;;;5047417;28;20641;-75
2022/08/02 10:10:44;;;;;;;2.75;1.23;;;25.30;99.10;;;;;;5062033;28;20032;-75
2022/08/02 10:13:10;;;;;;;1.77;1.20;;;25.40;99.00;;;;;;5047615;28;20512;-75
2022/08/02 10:15:37;;;;;;;3.47;1.23;;;25.40;98.60;;;;;;5060370;28;20506;-75
2022/08/02 10:18:06;;;;;;;1.55;1.20;;;25.50;97.80;;;;;;5049220;28;20021;-75
2022/08/02 10:20:39;;;;;;;1.58;1.20;;;25.50;98.70;;;;;;5050101;28;20072;-75
2022/08/02 10:23:08;;;;;;;2.72;1.40;;;25.50;98.90;;;;;;5050941;28;20037;-75
2022/08/02 10:25:36;;;;;;;2.42;1.20;;;25.50;97.80;;;;;;5046299;28;20036;-75
2022/08/02 10:28:04;;;;;;;1.75;1.20;;;25.40;96.50;;;;;;5047015;28;20028;-75
2022/08/02 10:30:30;;;;;;;1.55;1.45;;;25.40;97.20;;;;;;5049185;28;20091;-75
2022/08/02 10:32:57;;;;;;;2.38;1.02;;;25.40;96.90;;;;;;5054187;28;20107;-75
2022/08/02 10:35:24;;;;;;;1.83;1.20;;;25.50;98.60;;;;;;5056395;28;20099;-75
2022/08/02 10:37:53;;;;;;;1.73;1.20;;;25.70;98.00;;;;;;5046511;28;20041;-76
2022/08/02 10:40:22;;;;;;;2.08;1.33;;;25.80;98.00;;;;;;5045550;28;20025;-75
2022/08/02 10:43:05;;;;;;;3.47;1.70;;;26.00;95.20;;;;;;5060731;28;20396;-75
2022/08/02 10:45:31;;;;;;;2.17;1.40;;;25.90;94.00;;;;;;5062304;28;20381;-76
2022/08/02 10:48:10;;;;;;;1.50;1.13;;;26.00;93.70;;;;;;5050684;28;20017;-75
2022/08/02 10:50:45;;;;;;;3.20;1.20;;;26.00;94.30;;;;;;5049128;28;20033;-75
2022/08/02 10:53:28;;;;;;;1.40;1.25;;;26.10;94.60;;;;;;5056473;28;20029;-75
2022/08/02 10:56:13;;;;;;;2.97;1.20;;;26.10;94.60;;;;;;5049316;28;20031;-75
2022/08/02 10:58:39;;;;;;;2.42;1.20;;;26.30;94.90;;;;;;5059566;28;20493;-75
2022/08/02 11:01:27;;;;;;;2.05;1.80;;;26.40;94.00;;;;;;5049421;28;20028;-75
2022/08/02 11:03:58;;;;;;;1.33;1.23;;;26.40;91.90;;;;;;5058749;28;20054;-76
2022/08/02 11:06:24;;;;;;;1.33;1.23;;;26.20;92.10;;;;;;5054971;28;20021;-76
2022/08/02 11:08:49;;;;;;;2.20;1.40;;;26.30;91.90;;;;;;5048694;28;20086;-76
2022/08/02 11:11:17;;;;;;;2.75;1.30;;;26.40;92.10;;;;;;5064810;28;20025;-75
2022/08/02 11:14:07;;;;;;;1.60;1.30;;;26.50;92.40;;;;;;5057552;28;20051;-76
2022/08/02 11:16:54;;;;;;;1.98;1.35;;;26.70;91.90;;;;;;5046723;28;20040;-76
2022/08/02 11:19:21;;;;;;;2.38;1.20;;;26.70;91.20;;;;;;5053552;28;20017;-75
2022/08/02 11:22:11;;;;;;;1.20;1.10;;;26.80;90.10;;;;;;5045153;28;20116;-75
2022/08/02 11:24:39;;;;;;;1.55;1.08;;;26.90;88.30;;;;;;5063738;28;20995;-75
2022/08/02 11:27:15;;;;;;;1.80;1.30;;;26.90;90.50;;;;;;5059990;28;20037;-75
2022/08/02 11:29:43;;;;;;;2.03;1.20;;;27.10;90.50;;;;;;5045995;28;20029;-75
2022/08/02 11:32:21;;;;;;;3.22;1.20;;;27.20;86.80;;;;;;5048191;28;20078;-75
2022/08/02 11:34:51;;;;;;;2.88;1.35;;;27.30;86.20;;;;;;5070309;28;20037;-75
2022/08/02 11:37:34;;;;;;;1.30;1.10;;;27.40;84.60;;;;;;5059214;28;20044;-75
2022/08/02 11:40:00;;;;;;;2.55;1.20;;;27.50;84.00;;;;;;5053969;28;20036;-75
2022/08/02 11:42:37;;;;;;;2.30;1.13;;;27.70;83.60;;;;;;5052826;28;20107;-75
2022/08/02 11:45:06;;;;;;;1.23;0.90;;;27.90;81.20;;;;;;5060553;28;20028;-75
2022/08/02 11:47:31;;;;;;;2.17;1.30;;;28.00;78.10;;;;;;5051472;28;20102;-76
2022/08/02 11:50:07;;;;;;;2.13;1.20;;;28.00;80.60;;;;;;5050792;28;20032;-75
2022/08/02 11:52:34;;;;;;;1.20;1.00;;;28.00;79.70;;;;;;5064249;28;20036;-76
2022/08/02 11:55:01;;;;;;;3.30;1.38;;;28.00;79.90;;;;;;5061034;28;20032;-76
2022/08/02 11:57:26;;;;;;;1.20;1.10;;;27.80;77.00;;;;;;5061635;28;20055;-75
2022/08/02 11:59:54;;;;;;;2.00;1.20;;;27.80;76.50;;;;;;5075699;28;20064;-76
2022/08/02 12:02:31;;;;;;;1.85;1.10;;;27.70;78.40;;;;;;5059350;28;20102;-76
2022/08/02 12:05:05;;;;;;;1.54;1.23;;;27.80;76.80;;;;;;4567939;28;10002819;-75
2022/08/02 12:07:37;;;;;;;2.05;1.25;;;27.90;77.80;;;;;;5054352;28;20528;-76
2022/08/02 12:10:15;;;;;;;1.88;1.10;;;28.00;78.20;;;;;;5043622;28;20035;-76
2022/08/02 12:12:55;;;;;;;1.17;1.00;;;28.10;79.10;;;;;;5052857;28;20512;-75
2022/08/02 12:15:43;;;;;;;1.92;1.10;;;28.30;76.00;;;;;;5052759;28;20081;-76
2022/08/02 12:20:56;;;;;;;0.90;0.90;;;28.50;73.10;;;;;;5060166;28;20063;-76
2022/08/02 12:23:21;;;;;;;1.17;0.90;;;28.60;71.10;;;;;;5079150;28;20035;-76
2022/08/02 12:26:08;;;;;;;1.10;1.00;;;28.50;71.40;;;;;;5051151;28;20025;-76
2022/08/02 12:28:37;;;;;;;1.25;1.00;;;28.60;70.80;;;;;;5046807;28;20028;-76
2022/08/02 12:31:04;;;;;;;5.82;1.73;;;28.60;71.10;;;;;;5064026;28;20027;-76
2022/08/02 12:33:47;;;;;;;1.05;1.00;;;28.60;69.70;;;;;;5060761;28;20044;-76
2022/08/02 12:36:21;;;;;;;1.95;1.20;;;28.70;69.30;;;;;;5051270;28;20450;-76
2022/08/02 12:38:58;;;;;;;1.77;1.25;;;28.70;66.00;;;;;;5046540;28;20150;-76
2022/08/02 12:41:25;;;;;;;1.23;1.00;;;28.80;67.30;;;;;;5045829;28;20025;-76
2022/08/02 12:43:51;;;;;;;1.00;1.00;;;28.80;68.70;;;;;;5052345;28;20033;-76
2022/08/02 12:46:24;;;;;;;1.20;1.10;;;28.90;66.40;;;;;;5056751;28;20040;-76
2022/08/02 12:48:49;;;;;;;1.55;1.20;;;28.90;66.10;;;;;;5045927;28;20343;-76
2022/08/02 12:51:22;;;;;;;2.00;1.20;;;29.00;67.10;;;;;;5061518;28;20082;-76
2022/08/02 12:53:48;;;;;;;1.70;1.20;;;29.00;66.40;;;;;;5057267;28;20048;-76
2022/08/02 12:56:26;;;;;;;3.33;1.10;;;29.00;65.90;;;;;;5045842;28;20029;-76
2022/08/02 12:58:52;;;;;;;2.47;1.10;;;29.00;65.80;;;;;;5051767;28;20606;-76
2022/08/02 13:01:22;;;;;;;3.33;1.00;;;29.10;67.00;;;;;;5055495;28;20033;-76